createdAt,value
2024-02-10T00:00:07.875Z,16.07
2024-02-10T00:02:11.812Z,16.50
2024-02-10T00:04:16.373Z,17.90
2024-02-10T00:06:18.753Z,17.57
2024-02-10T00:08:23.791Z,15.33
2024-02-10T00:10:28.951Z,17.57
2024-02-10T00:12:32.714Z,16.73
2024-02-10T00:14:35.673Z,16.30
2024-02-10T00:16:38.330Z,15.93
2024-02-10T00:18:42.308Z,15.97
2024-02-10T00:20:45.135Z,17.67
2024-02-10T00:22:49.223Z,16.30
2024-02-10T00:24:52.718Z,16.30
2024-02-10T00:26:54.895Z,16.23
2024-02-10T00:28:58.502Z,15.60
2024-02-10T00:31:01.312Z,17.43
2024-02-10T00:33:05.846Z,16.43
2024-02-10T00:35:08.348Z,15.77
2024-02-10T00:37:11.617Z,16.07
2024-02-10T00:39:13.971Z,16.80
2024-02-10T00:41:18.055Z,17.43
2024-02-10T00:43:20.833Z,16.73
2024-02-10T00:45:23.578Z,16.27
2024-02-10T00:47:26.558Z,14.60
2024-02-10T00:49:29.173Z,14.70
2024-02-10T00:51:31.658Z,15.80
2024-02-10T00:53:41.503Z,15.13
2024-02-10T00:55:44.399Z,14.82
2024-02-10T00:57:48.155Z,14.43
2024-02-10T00:59:50.555Z,15.33
2024-02-10T01:01:53.432Z,15.60
2024-02-10T01:03:57.284Z,16.57
2024-02-10T01:05:59.772Z,14.17
2024-02-10T01:08:02.123Z,16.90
2024-02-10T01:10:07.701Z,17.40
2024-02-10T01:12:09.935Z,18.90
2024-02-10T01:14:13.873Z,16.43
2024-02-10T01:16:17.166Z,14.97
2024-02-10T01:18:19.791Z,14.50
2024-02-10T01:20:22.055Z,15.63
2024-02-10T01:22:30.841Z,13.17
2024-02-10T01:24:33.148Z,14.10
2024-02-10T01:26:38.963Z,13.70
2024-02-10T01:28:45.977Z,14.70
2024-02-10T01:30:52.637Z,14.77
2024-02-10T01:32:59.996Z,13.97
2024-02-10T01:35:05.154Z,13.70
2024-02-10T01:37:09.174Z,14.97
2024-02-10T01:39:11.739Z,14.20
2024-02-10T01:41:16.888Z,14.97
2024-02-10T01:43:19.764Z,15.33
2024-02-10T01:45:22.040Z,14.47
2024-02-10T01:47:25.835Z,14.67
2024-02-10T01:49:28.943Z,15.43
2024-02-10T01:51:32.248Z,15.23
2024-02-10T01:53:35.930Z,14.73
2024-02-10T01:55:38.782Z,16.87
2024-02-10T01:57:41.548Z,17.47
2024-02-10T01:59:44.617Z,15.37
2024-02-10T02:01:49.946Z,15.60
2024-02-10T02:03:54.589Z,16.67
2024-02-10T02:05:57.149Z,15.87
2024-02-10T02:08:00.848Z,15.47
2024-02-10T02:10:03.778Z,16.77
2024-02-10T02:12:08.553Z,14.20
2024-02-10T02:14:11.952Z,14.67
2024-02-10T02:16:14.605Z,16.17
2024-02-10T02:18:17.005Z,16.03
2024-02-10T02:20:21.500Z,14.70
2024-02-10T02:22:26.938Z,16.30
2024-02-10T02:24:32.565Z,16.17
2024-02-10T02:26:35.080Z,16.47
2024-02-10T02:28:39.304Z,17.13
2024-02-10T02:30:41.527Z,14.23
2024-02-10T02:32:44.163Z,14.70
2024-02-10T02:34:48.617Z,16.37
2024-02-10T02:36:53.999Z,17.80
2024-02-10T02:38:56.244Z,14.60
2024-02-10T02:40:58.837Z,15.17
2024-02-10T02:43:03.991Z,16.73
2024-02-10T02:45:12.192Z,16.05
2024-02-10T02:47:14.486Z,15.27
2024-02-10T02:49:17.677Z,15.63
2024-02-10T02:51:21.750Z,15.13
2024-02-10T02:53:27.160Z,15.77
2024-02-10T02:55:33.016Z,14.40
2024-02-10T02:57:36.033Z,16.17
2024-02-10T02:59:38.203Z,16.37
2024-02-10T03:01:42.302Z,14.13
2024-02-10T03:03:48.253Z,14.53
2024-02-10T03:05:50.929Z,15.20
2024-02-10T03:07:53.170Z,14.93
2024-02-10T03:09:55.783Z,15.00
2024-02-10T03:11:57.984Z,14.80
2024-02-10T03:14:00.754Z,16.50
2024-02-10T03:16:03.625Z,15.93
2024-02-10T03:18:06.839Z,15.53
2024-02-10T03:20:10.774Z,15.07
2024-02-10T03:22:14.372Z,14.77
2024-02-10T03:24:18.083Z,16.60
2024-02-10T03:26:20.527Z,15.20
2024-02-10T03:28:25.695Z,16.27
2024-02-10T03:30:28.568Z,15.63
2024-02-10T03:32:34.272Z,16.60
2024-02-10T03:34:37.297Z,17.57
2024-02-10T03:36:40.091Z,17.47
2024-02-10T03:38:43.066Z,16.87
2024-02-10T03:40:47.819Z,16.60
2024-02-10T03:42:50.399Z,15.83
2024-02-10T03:44:54.009Z,15.00
2024-02-10T03:46:58.308Z,16.17
2024-02-10T03:49:01.144Z,15.30
2024-02-10T03:51:03.726Z,16.07
2024-02-10T03:53:05.982Z,16.30
2024-02-10T03:55:10.345Z,14.50
2024-02-10T03:57:12.832Z,14.03
2024-02-10T03:59:16.433Z,15.00
2024-02-10T04:01:18.641Z,16.37
2024-02-10T04:03:22.319Z,15.07
2024-02-10T04:05:29.183Z,16.27
2024-02-10T04:07:34.964Z,14.73
2024-02-10T04:09:37.081Z,16.80
2024-02-10T04:11:39.580Z,15.37
2024-02-10T04:13:45.235Z,14.87
2024-02-10T04:15:47.742Z,16.13
2024-02-10T04:17:54.281Z,16.33
2024-02-10T04:19:57.560Z,14.50
2024-02-10T04:21:59.880Z,16.17
2024-02-10T04:24:02.334Z,17.03
2024-02-10T04:26:08.597Z,16.43
2024-02-10T04:28:11.985Z,15.67
2024-02-10T04:30:15.041Z,14.30
2024-02-10T04:32:17.987Z,14.30
2024-02-10T04:34:20.246Z,15.32
2024-02-10T04:36:24.012Z,15.80
2024-02-10T04:38:26.305Z,14.93
2024-02-10T04:40:28.921Z,15.40
2024-02-10T04:42:32.440Z,15.52
2024-02-10T04:44:35.591Z,15.40
2024-02-10T04:46:37.793Z,13.67
2024-02-10T04:48:40.312Z,17.27
2024-02-10T04:50:42.535Z,20.33
2024-02-10T04:52:45.366Z,17.35
2024-02-10T04:54:55.012Z,29.42
2024-02-10T04:59:02.589Z,40.50
2024-02-10T05:01:05.297Z,33.60
2024-02-10T05:03:07.549Z,24.65
2024-02-10T05:05:12.149Z,24.65
2024-02-10T05:07:19.349Z,23.23
2024-02-10T05:09:22.161Z,24.95
2024-02-10T05:11:24.407Z,24.90
2024-02-10T05:13:26.935Z,20.23
2024-02-10T05:15:29.209Z,20.23
2024-02-10T05:17:31.647Z,19.35
2024-02-10T05:19:34.764Z,18.33
2024-02-10T05:21:38.674Z,15.65
2024-02-10T05:23:42.338Z,16.02
2024-02-10T05:25:44.797Z,15.18
2024-02-10T05:27:48.178Z,17.38
2024-02-10T05:29:50.755Z,14.32
2024-02-10T05:31:52.998Z,14.00
2024-02-10T05:33:55.587Z,15.77
2024-02-10T05:35:57.836Z,15.68
2024-02-10T05:38:04.733Z,14.23
2024-02-10T05:40:10.905Z,15.55
2024-02-10T05:42:14.862Z,14.50
2024-02-10T05:44:17.432Z,14.77
2024-02-10T05:46:19.893Z,13.60
2024-02-10T05:48:28.909Z,15.52
2024-02-10T05:50:33.789Z,14.05
2024-02-10T05:52:40.186Z,12.88
2024-02-10T05:54:42.615Z,13.80
2024-02-10T05:56:46.304Z,14.60
2024-02-10T05:58:49.126Z,13.82
2024-02-10T06:00:53.375Z,12.75
2024-02-10T06:02:57.189Z,12.43
2024-02-10T06:05:00.368Z,14.52
2024-02-10T06:07:08.668Z,14.80
2024-02-10T06:09:11.345Z,13.57
2024-02-10T06:11:19.010Z,16.38
2024-02-10T06:13:21.170Z,15.75
2024-02-10T06:15:27.033Z,14.97
2024-02-10T06:17:30.026Z,13.63
2024-02-10T06:19:32.583Z,14.43
2024-02-10T06:21:35.188Z,15.13
2024-02-10T06:23:41.213Z,17.37
2024-02-10T06:25:44.382Z,14.87
2024-02-10T06:27:47.141Z,15.50
2024-02-10T06:29:50.031Z,18.43
2024-02-10T06:31:52.536Z,17.67
2024-02-10T06:33:56.018Z,16.90
2024-02-10T06:36:00.104Z,19.27
2024-02-10T06:38:02.284Z,16.92
2024-02-10T06:40:09.810Z,17.50
2024-02-10T06:42:12.795Z,17.90
2024-02-10T06:44:15.222Z,17.43
2024-02-10T06:46:18.387Z,17.37
2024-02-10T06:48:22.293Z,16.50
2024-02-10T06:50:30.402Z,18.33
2024-02-10T06:52:38.335Z,18.03
2024-02-10T06:54:40.548Z,18.70
2024-02-10T06:56:45.559Z,20.27
2024-02-10T06:58:50.498Z,20.90
2024-02-10T07:00:53.140Z,18.10
2024-02-10T07:02:58.551Z,18.50
2024-02-10T07:05:01.559Z,18.83
2024-02-10T07:07:04.402Z,18.10
2024-02-10T07:09:08.229Z,17.60
2024-02-10T07:11:10.481Z,18.50
2024-02-10T07:13:13.088Z,17.15
2024-02-10T07:15:20.153Z,18.27
2024-02-10T07:17:22.733Z,18.40
2024-02-10T07:19:25.676Z,17.80
2024-02-10T07:21:28.237Z,17.37
2024-02-10T07:23:30.381Z,16.70
2024-02-10T07:25:34.837Z,17.25
2024-02-10T07:27:38.277Z,18.10
2024-02-10T07:29:46.148Z,17.40
2024-02-10T07:31:48.458Z,17.85
2024-02-10T07:33:51.135Z,17.50
2024-02-10T07:35:53.647Z,17.42
2024-02-10T07:37:56.179Z,16.70
2024-02-10T07:39:58.382Z,17.77
2024-02-10T07:42:02.599Z,18.63
2024-02-10T07:44:14.154Z,16.90
2024-02-10T07:46:18.224Z,17.00
2024-02-10T07:48:20.569Z,15.50
2024-02-10T07:50:23.209Z,16.27
2024-02-10T07:52:32.144Z,18.17
2024-02-10T07:54:35.448Z,15.75
2024-02-10T07:56:39.066Z,17.27
2024-02-10T07:58:41.594Z,17.55
2024-02-10T08:00:44.257Z,19.13
2024-02-10T08:02:46.964Z,21.15
2024-02-10T08:04:59.206Z,20.30
2024-02-10T08:07:01.768Z,21.30
2024-02-10T08:09:04.326Z,19.67
2024-02-10T08:11:06.905Z,18.77
2024-02-10T08:13:10.165Z,21.17
2024-02-10T08:15:12.932Z,19.73
2024-02-10T08:17:15.509Z,19.48
2024-02-10T08:19:19.572Z,20.27
2024-02-10T08:21:27.408Z,18.80
2024-02-10T08:23:29.963Z,20.35
2024-02-10T08:25:32.270Z,19.00
2024-02-10T08:27:34.884Z,19.25
2024-02-10T08:29:37.178Z,18.65
2024-02-10T08:31:39.792Z,17.77
2024-02-10T08:33:46.218Z,19.25
2024-02-10T08:35:48.879Z,19.65
2024-02-10T08:37:51.696Z,21.25
2024-02-10T08:39:54.152Z,20.02
2024-02-10T08:41:56.398Z,17.88
2024-02-10T08:43:59.320Z,19.48
2024-02-10T08:46:02.233Z,21.08
2024-02-10T08:48:11.742Z,18.13
2024-02-10T08:50:14.062Z,20.65
2024-02-10T08:52:24.015Z,19.15
2024-02-10T08:54:31.928Z,18.63
2024-02-10T08:56:40.077Z,18.67
2024-02-10T08:58:42.444Z,20.20
2024-02-10T09:00:47.456Z,20.55
2024-02-10T09:02:52.268Z,19.90
2024-02-10T09:04:55.427Z,20.40
2024-02-10T09:07:02.137Z,22.98
2024-02-10T09:09:05.677Z,22.08
2024-02-10T09:11:07.940Z,23.42
2024-02-10T09:13:10.492Z,21.75
2024-02-10T09:15:12.969Z,22.88
2024-02-10T09:17:15.491Z,24.80
2024-02-10T09:19:20.036Z,21.58
2024-02-10T09:21:22.526Z,23.75
2024-02-10T09:23:24.708Z,22.58
2024-02-10T09:25:29.214Z,22.13
2024-02-10T09:27:31.498Z,21.65
2024-02-10T09:29:35.983Z,22.00
2024-02-10T09:31:44.016Z,23.45
2024-02-10T09:33:47.318Z,21.95
2024-02-10T09:35:51.864Z,20.95
2024-02-10T09:37:54.450Z,24.42
2024-02-10T09:39:56.974Z,21.60
2024-02-10T09:42:05.503Z,20.60
2024-02-10T09:44:12.655Z,22.27
2024-02-10T09:46:15.941Z,24.77
2024-02-10T09:48:21.502Z,22.13
2024-02-10T09:50:31.471Z,25.17
2024-02-10T09:52:40.244Z,23.15
2024-02-10T09:54:43.190Z,23.52
2024-02-10T09:56:45.474Z,26.48
2024-02-10T09:58:50.811Z,23.88
2024-02-10T10:00:54.195Z,26.45
2024-02-10T10:03:04.248Z,25.77
2024-02-10T10:05:07.537Z,22.50
2024-02-10T10:07:10.468Z,26.33
2024-02-10T10:09:16.143Z,25.48
2024-02-10T10:11:18.601Z,26.20
2024-02-10T10:13:20.961Z,26.60
2024-02-10T10:15:23.439Z,25.55
2024-02-10T10:17:37.283Z,24.35
2024-02-10T10:19:39.870Z,25.58
2024-02-10T10:21:42.078Z,26.05
2024-02-10T10:23:47.808Z,25.73
2024-02-10T10:25:50.121Z,25.95
2024-02-10T10:27:55.215Z,25.50
2024-02-10T10:29:57.584Z,25.83
2024-02-10T10:32:03.021Z,27.80
2024-02-10T10:34:07.888Z,25.13
2024-02-10T10:36:10.829Z,26.33
2024-02-10T10:38:14.017Z,28.02
2024-02-10T10:40:17.850Z,27.30
2024-02-10T10:42:23.297Z,26.25
2024-02-10T10:44:27.471Z,25.30
2024-02-10T10:46:31.720Z,24.70
2024-02-10T10:48:35.294Z,26.40
2024-02-10T10:50:37.830Z,24.95
2024-02-10T10:52:43.907Z,26.30
2024-02-10T10:54:46.834Z,25.40
2024-02-10T10:56:49.810Z,24.60
2024-02-10T10:58:59.493Z,24.35
2024-02-10T11:01:04.601Z,25.25
2024-02-10T11:03:07.109Z,26.42
2024-02-10T11:05:12.105Z,25.42
2024-02-10T11:07:16.823Z,24.80
2024-02-10T11:09:23.011Z,24.92
2024-02-10T11:11:25.374Z,24.75
2024-02-10T11:13:32.136Z,24.55
2024-02-10T11:15:42.301Z,23.45
2024-02-10T11:17:45.056Z,24.02
2024-02-10T11:20:05.751Z,24.42
2024-02-10T11:22:11.612Z,26.45
2024-02-10T11:24:18.160Z,24.85
2024-02-10T11:26:21.622Z,24.63
2024-02-10T11:28:24.904Z,24.70
2024-02-10T11:30:32.896Z,23.40
2024-02-10T11:32:35.502Z,25.50
2024-02-10T11:34:38.340Z,23.55
2024-02-10T11:36:41.432Z,23.13
2024-02-10T11:38:43.874Z,23.30
2024-02-10T11:40:46.424Z,23.00
2024-02-10T11:42:49.024Z,22.05
2024-02-10T11:44:52.373Z,22.75
2024-02-10T11:46:55.062Z,22.27
2024-02-10T11:49:01.199Z,21.60
2024-02-10T11:51:05.448Z,22.65
2024-02-10T11:53:07.917Z,20.80
2024-02-10T11:55:11.729Z,20.73
2024-02-10T11:57:14.135Z,23.00
2024-02-10T11:59:18.404Z,22.15
2024-02-10T12:01:20.829Z,22.17
2024-02-10T12:03:25.715Z,21.00
2024-02-10T12:05:31.130Z,20.67
2024-02-10T12:07:33.676Z,20.38
2024-02-10T12:09:35.898Z,20.17
2024-02-10T12:11:39.162Z,18.73
2024-02-10T12:13:41.501Z,19.65
2024-02-10T12:15:45.086Z,18.98
2024-02-10T12:17:48.029Z,19.67
2024-02-10T12:19:54.080Z,20.27
2024-02-10T12:21:59.074Z,18.38
2024-02-10T12:24:01.985Z,18.10
2024-02-10T12:26:04.383Z,18.75
2024-02-10T12:28:07.035Z,19.10
2024-02-10T12:30:09.626Z,21.13
2024-02-10T12:32:12.525Z,20.70
2024-02-10T12:34:16.710Z,21.40
2024-02-10T12:36:21.731Z,21.85
2024-02-10T12:38:27.427Z,20.58
2024-02-10T12:40:30.426Z,21.05
2024-02-10T12:42:33.168Z,20.63
2024-02-10T12:44:36.859Z,20.98
2024-02-10T12:46:39.831Z,20.15
2024-02-10T12:48:42.509Z,21.02
2024-02-10T12:50:46.176Z,20.80
2024-02-10T12:52:48.870Z,19.33
2024-02-10T12:54:51.564Z,21.27
2024-02-10T12:56:55.062Z,24.15
2024-02-10T12:58:57.837Z,21.13
2024-02-10T13:01:00.591Z,21.52
2024-02-10T13:03:03.308Z,19.70
2024-02-10T13:05:06.130Z,20.20
2024-02-10T13:07:08.678Z,23.40
2024-02-10T13:09:11.140Z,21.77
2024-02-10T13:11:13.777Z,22.33
2024-02-10T13:13:17.894Z,20.95
2024-02-10T13:15:21.193Z,22.55
2024-02-10T13:17:24.074Z,21.55
2024-02-10T13:19:28.039Z,21.35
2024-02-10T13:21:30.732Z,21.33
2024-02-10T13:23:32.981Z,19.85
2024-02-10T13:25:35.468Z,18.63
2024-02-10T13:27:38.213Z,21.17
2024-02-10T13:29:40.622Z,24.67
2024-02-10T13:31:42.827Z,24.55
2024-02-10T13:33:45.344Z,23.20
2024-02-10T13:35:52.954Z,24.25
2024-02-10T13:38:13.949Z,25.10
2024-02-10T13:40:35.309Z,24.17
2024-02-10T13:42:56.572Z,24.65
2024-02-10T13:45:17.496Z,23.75
2024-02-10T13:47:38.303Z,23.45
2024-02-10T13:50:03.340Z,25.45
2024-02-10T13:52:24.731Z,24.80
2024-02-10T13:54:45.687Z,25.67
2024-02-10T13:57:07.071Z,24.42
2024-02-10T13:59:09.206Z,25.73
2024-02-10T14:01:14.089Z,23.90
2024-02-10T14:03:17.006Z,25.25
2024-02-10T14:05:39.837Z,24.00
2024-02-10T14:07:42.144Z,24.98
2024-02-10T14:09:46.350Z,27.40
2024-02-10T14:11:54.570Z,24.67
2024-02-10T14:13:57.455Z,26.27
2024-02-10T14:16:00.334Z,24.98
2024-02-10T14:18:04.786Z,27.45
2024-02-10T14:20:13.361Z,26.48
2024-02-10T14:22:19.166Z,28.27
2024-02-10T14:24:21.272Z,26.50
2024-02-10T14:26:41.224Z,26.98
2024-02-10T14:28:56.834Z,27.35
2024-02-10T14:30:59.236Z,27.55
2024-02-10T14:33:02.392Z,28.25
2024-02-10T14:35:20.553Z,27.77
2024-02-10T14:37:43.508Z,27.85
2024-02-10T14:39:46.156Z,28.30
2024-02-10T14:41:51.277Z,29.05
2024-02-10T14:43:53.731Z,30.30
2024-02-10T14:45:55.964Z,28.67
2024-02-10T14:47:59.372Z,27.92
2024-02-10T14:50:02.868Z,28.85
2024-02-10T14:52:05.692Z,29.27
2024-02-10T14:54:11.584Z,29.20
2024-02-10T14:56:15.369Z,30.02
2024-02-10T14:58:17.464Z,31.63
2024-02-10T15:00:25.127Z,31.70
2024-02-10T15:02:27.763Z,30.00
2024-02-10T15:04:30.303Z,33.05
2024-02-10T15:06:35.336Z,30.95
2024-02-10T15:08:40.448Z,31.30
2024-02-10T15:10:42.626Z,32.25
2024-02-10T15:12:45.614Z,35.60
2024-02-10T15:14:47.759Z,38.25
2024-02-10T15:16:50.461Z,35.58
2024-02-10T15:18:53.222Z,34.90
2024-02-10T15:20:56.828Z,35.03
2024-02-10T15:23:01.480Z,34.80
2024-02-10T15:25:05.224Z,38.72
2024-02-10T15:27:07.376Z,37.80
2024-02-10T15:29:09.832Z,36.22
2024-02-10T15:31:12.472Z,37.38
2024-02-10T15:33:19.606Z,37.22
2024-02-10T15:35:22.766Z,37.03
2024-02-10T15:37:25.706Z,38.97
2024-02-10T15:39:28.127Z,38.67
2024-02-10T15:41:30.609Z,40.05
2024-02-10T15:43:32.905Z,39.90
2024-02-10T15:45:39.341Z,38.25
2024-02-10T15:47:41.846Z,42.25
2024-02-10T15:49:44.722Z,38.05
2024-02-10T15:51:46.834Z,43.67
2024-02-10T15:53:49.258Z,42.40
2024-02-10T15:55:57.740Z,43.05
2024-02-10T15:58:00.664Z,53.40
2024-02-10T16:00:02.747Z,45.65
2024-02-10T16:02:11.846Z,48.88
2024-02-10T16:04:15.283Z,46.95
2024-02-10T16:06:18.682Z,43.65
2024-02-10T16:08:21.547Z,43.97
2024-02-10T16:10:24.533Z,44.85
2024-02-10T16:12:27.032Z,43.92
2024-02-10T16:14:30.354Z,42.53
2024-02-10T16:16:33.068Z,44.00
2024-02-10T16:18:36.549Z,40.72
2024-02-10T16:20:39.046Z,39.30
2024-02-10T16:22:41.582Z,41.05
2024-02-10T16:24:44.617Z,39.42
2024-02-10T16:26:47.044Z,52.45
2024-02-10T16:28:52.558Z,42.70
2024-02-10T16:30:55.530Z,42.75
2024-02-10T16:32:58.069Z,42.80
2024-02-10T16:35:05.392Z,47.33
2024-02-10T16:37:13.888Z,42.20
2024-02-10T16:39:16.509Z,43.92
2024-02-10T16:41:23.110Z,42.22
2024-02-10T16:43:25.571Z,40.83
2024-02-10T16:45:28.639Z,39.90
2024-02-10T16:47:31.468Z,38.50
2024-02-10T16:49:33.962Z,38.08
2024-02-10T16:51:38.068Z,37.10
2024-02-10T16:53:43.174Z,40.17
2024-02-10T16:55:46.113Z,40.38
2024-02-10T16:57:48.297Z,32.28
2024-02-10T16:59:51.140Z,31.65
2024-02-10T17:01:54.057Z,36.95
2024-02-10T17:03:56.567Z,37.33
2024-02-10T17:06:00.601Z,33.20
2024-02-10T17:08:04.945Z,41.65
2024-02-10T17:10:07.721Z,40.00
2024-02-10T17:12:11.012Z,34.50
2024-02-10T17:14:13.304Z,36.30
2024-02-10T17:16:17.429Z,30.75
2024-02-10T17:18:20.127Z,38.58
2024-02-10T17:20:22.779Z,41.70
2024-02-10T17:22:25.573Z,34.30
2024-02-10T17:24:28.470Z,35.78
2024-02-10T17:26:30.845Z,36.88
2024-02-10T17:28:33.896Z,34.25
2024-02-10T17:30:36.015Z,40.08
2024-02-10T17:32:38.993Z,37.60
2024-02-10T17:34:42.737Z,36.53
2024-02-10T17:36:46.253Z,34.47
2024-02-10T17:38:48.383Z,36.95
2024-02-10T17:40:51.163Z,37.30
2024-02-10T17:42:54.119Z,40.67
2024-02-10T17:44:58.271Z,38.50
2024-02-10T17:47:01.325Z,41.67
2024-02-10T17:49:11.151Z,45.75
2024-02-10T17:51:15.043Z,42.42
2024-02-10T17:53:28.086Z,39.47
2024-02-10T17:55:32.980Z,40.08
2024-02-10T17:57:36.238Z,38.70
2024-02-10T17:59:38.817Z,46.35
2024-02-10T18:01:41.265Z,46.38
2024-02-10T18:03:43.459Z,41.33
2024-02-10T18:05:50.771Z,42.47
2024-02-10T18:07:58.131Z,38.58
2024-02-10T18:10:05.908Z,39.20
2024-02-10T18:12:09.965Z,39.40
2024-02-10T18:14:14.112Z,36.00
2024-02-10T18:16:16.405Z,36.83
2024-02-10T18:18:19.604Z,36.25
2024-02-10T18:20:22.572Z,40.22
2024-02-10T18:22:25.125Z,38.15
2024-02-10T18:24:29.144Z,35.38
2024-02-10T18:26:31.950Z,53.40
2024-02-10T18:28:35.269Z,38.95
2024-02-10T18:30:37.905Z,41.80
2024-02-10T18:32:40.195Z,36.10
2024-02-10T18:34:42.826Z,35.78
2024-02-10T18:36:46.749Z,37.45
2024-02-10T18:38:49.313Z,40.50
2024-02-10T18:40:52.893Z,35.33
2024-02-10T18:42:56.524Z,35.25
2024-02-10T18:44:58.700Z,36.38
2024-02-10T18:47:01.183Z,40.03
2024-02-10T18:49:03.464Z,38.45
2024-02-10T18:51:07.163Z,39.58
2024-02-10T18:53:10.906Z,36.90
2024-02-10T18:55:19.417Z,36.60
2024-02-10T18:57:21.940Z,35.45
2024-02-10T18:59:24.400Z,37.50
2024-02-10T19:01:27.327Z,32.22
2024-02-10T19:03:30.493Z,32.42
2024-02-10T19:05:33.377Z,32.40
2024-02-10T19:07:38.257Z,32.55
2024-02-10T19:09:40.431Z,40.40
2024-02-10T19:11:43.449Z,38.58
2024-02-10T19:13:46.894Z,36.50
2024-02-10T19:15:50.109Z,45.00
2024-02-10T19:17:52.559Z,36.55
2024-02-10T19:19:55.141Z,41.58
2024-02-10T19:21:57.321Z,39.90
2024-02-10T19:24:02.091Z,33.83
2024-02-10T19:26:04.719Z,36.03
2024-02-10T19:28:11.292Z,34.60
2024-02-10T19:30:14.281Z,41.00
2024-02-10T19:32:17.198Z,40.05
2024-02-10T19:34:22.675Z,34.35
2024-02-10T19:36:25.336Z,33.10
2024-02-10T19:38:30.622Z,40.22
2024-02-10T19:40:33.418Z,35.83
2024-02-10T19:42:36.799Z,32.55
2024-02-10T19:44:39.395Z,41.83
2024-02-10T19:46:41.650Z,40.03
2024-02-10T19:48:48.284Z,37.92
2024-02-10T19:50:52.317Z,33.28
2024-02-10T19:52:59.141Z,35.28
2024-02-10T19:55:01.488Z,37.15
2024-02-10T19:57:04.425Z,36.80
2024-02-10T19:59:11.335Z,48.65
2024-02-10T20:01:13.872Z,39.40
2024-02-10T20:03:16.299Z,32.90
2024-02-10T20:05:19.437Z,33.45
2024-02-10T20:07:21.782Z,31.35
2024-02-10T20:09:27.816Z,40.63
2024-02-10T20:11:30.447Z,34.72
2024-02-10T20:13:33.029Z,33.20
2024-02-10T20:15:35.888Z,30.17
2024-02-10T20:17:42.320Z,39.63
2024-02-10T20:19:44.819Z,33.38
2024-02-10T20:21:50.141Z,29.13
2024-02-10T20:23:55.107Z,28.65
2024-02-10T20:25:57.992Z,31.38
2024-02-10T20:28:03.611Z,30.02
2024-02-10T20:30:10.682Z,25.00
2024-02-10T20:32:12.871Z,29.55
2024-02-10T20:34:15.891Z,31.55
2024-02-10T20:36:19.531Z,24.23
2024-02-10T20:38:23.117Z,27.15
2024-02-10T20:40:25.397Z,35.10
2024-02-10T20:42:28.277Z,26.00
2024-02-10T20:44:30.560Z,21.00
2024-02-10T20:46:33.236Z,21.60
2024-02-10T20:48:35.545Z,21.55
2024-02-10T20:50:38.111Z,22.13
2024-02-10T20:52:40.554Z,21.90
2024-02-10T20:54:49.488Z,21.27
2024-02-10T20:56:52.147Z,21.17
2024-02-10T20:58:56.085Z,21.38
2024-02-10T21:00:58.688Z,26.98
2024-02-10T21:03:02.334Z,23.10
2024-02-10T21:05:06.916Z,18.98
2024-02-10T21:07:11.092Z,19.02
2024-02-10T21:09:15.236Z,25.33
2024-02-10T21:11:17.766Z,27.73
2024-02-10T21:13:19.901Z,22.92
2024-02-10T21:15:23.505Z,21.75
2024-02-10T21:17:25.684Z,20.77
2024-02-10T21:19:28.546Z,32.33
2024-02-10T21:21:30.760Z,33.08
2024-02-10T21:23:36.066Z,28.27
2024-02-10T21:25:38.476Z,19.23
2024-02-10T21:27:42.530Z,18.23
2024-02-10T21:29:45.504Z,25.85
2024-02-10T21:31:48.748Z,19.33
2024-02-10T21:33:51.961Z,17.17
2024-02-10T21:35:56.114Z,16.98
2024-02-10T21:37:58.273Z,27.67
2024-02-10T21:40:01.144Z,18.88
2024-02-10T21:42:04.121Z,20.33
2024-02-10T21:44:07.320Z,17.05
2024-02-10T21:46:09.526Z,19.55
2024-02-10T21:48:12.479Z,19.40
2024-02-10T21:50:17.577Z,18.70
2024-02-10T21:52:20.233Z,26.55
2024-02-10T21:54:25.830Z,20.92
2024-02-10T21:56:28.498Z,23.23
2024-02-10T21:58:31.403Z,19.15
2024-02-10T22:00:34.241Z,18.45
2024-02-10T22:02:39.045Z,19.20
2024-02-10T22:04:42.560Z,28.42
2024-02-10T22:06:44.857Z,24.95
2024-02-10T22:08:48.600Z,21.35
2024-02-10T22:10:51.524Z,21.10
2024-02-10T22:12:54.570Z,19.33
2024-02-10T22:14:57.014Z,22.15
2024-02-10T22:17:00.639Z,23.48
2024-02-10T22:19:03.537Z,23.92
2024-02-10T22:21:06.722Z,22.80
2024-02-10T22:23:10.297Z,21.98
2024-02-10T22:25:12.685Z,21.80
2024-02-10T22:27:15.186Z,25.45
2024-02-10T22:29:18.790Z,31.98
2024-02-10T22:31:21.359Z,20.38
2024-02-10T22:33:24.194Z,24.00
2024-02-10T22:35:27.627Z,20.60
2024-02-10T22:37:30.508Z,22.02
2024-02-10T22:39:39.745Z,16.60
2024-02-10T22:41:43.397Z,22.75
2024-02-10T22:43:45.595Z,18.55
2024-02-10T22:45:49.604Z,18.55
2024-02-10T22:47:52.092Z,20.45
2024-02-10T22:49:56.403Z,21.30
2024-02-10T22:51:58.704Z,19.15
2024-02-10T22:54:01.165Z,26.92
2024-02-10T22:56:09.012Z,20.65
2024-02-10T22:58:12.322Z,21.60
2024-02-10T23:00:21.387Z,20.85
2024-02-10T23:02:23.949Z,22.83
2024-02-10T23:04:26.077Z,21.98
2024-02-10T23:06:38.067Z,18.38
2024-02-10T23:08:40.348Z,24.35
2024-02-10T23:10:43.484Z,25.92
2024-02-10T23:12:50.874Z,27.73
2024-02-10T23:14:54.653Z,20.67
2024-02-10T23:16:58.091Z,21.60
2024-02-10T23:19:01.981Z,23.15
2024-02-10T23:21:04.344Z,20.92
2024-02-10T23:23:06.790Z,27.30
2024-02-10T23:25:09.240Z,23.58
2024-02-10T23:27:12.670Z,22.98
2024-02-10T23:29:15.114Z,23.33
2024-02-10T23:31:20.636Z,24.75
2024-02-10T23:33:34.094Z,21.42
2024-02-10T23:35:36.960Z,26.52
2024-02-10T23:37:41.438Z,25.42
2024-02-10T23:39:44.149Z,19.58
2024-02-10T23:41:47.456Z,23.73
2024-02-10T23:43:49.976Z,21.67
2024-02-10T23:45:52.235Z,20.13
2024-02-10T23:47:59.867Z,18.98
2024-02-10T23:50:02.333Z,18.58
2024-02-10T23:52:07.255Z,18.77
2024-02-10T23:54:13.694Z,20.95
2024-02-10T23:56:16.674Z,18.60
2024-02-10T23:58:18.838Z,21.70
